createdAt,value
2022-10-29T00:01:09.187Z,11.10
2022-10-29T00:04:27.195Z,11.10
2022-10-29T00:06:54.276Z,11.10
2022-10-29T00:09:21.298Z,11.10
2022-10-29T00:16:20.009Z,11.10
2022-10-29T00:18:47.499Z,11.10
2022-10-29T00:22:01.095Z,11.10
2022-10-29T00:24:28.152Z,11.10
2022-10-29T00:37:09.286Z,11.00
2022-10-29T00:39:36.412Z,11.10
2022-10-29T00:45:32.542Z,11.10
2022-10-29T00:47:59.694Z,11.10
2022-10-29T00:50:26.796Z,11.10
2022-10-29T00:53:33.386Z,11.10
2022-10-29T00:56:01.137Z,11.20
2022-10-29T01:01:37.004Z,11.20
2022-10-29T01:04:41.963Z,11.20
2022-10-29T01:07:09.139Z,11.20
2022-10-29T01:09:36.415Z,11.30
2022-10-29T01:16:18.978Z,11.30
2022-10-29T01:18:54.603Z,11.30
2022-10-29T01:21:33.589Z,11.40
2022-10-29T01:24:34.426Z,11.40
2022-10-29T01:27:43.963Z,11.40
2022-10-29T01:30:18.589Z,11.50
2022-10-29T01:32:51.848Z,11.50
2022-10-29T01:35:46.788Z,11.50
2022-10-29T01:38:24.271Z,11.50
2022-10-29T01:53:28.337Z,11.50
2022-10-29T01:55:55.441Z,11.60
2022-10-29T01:58:24.103Z,11.50
2022-10-29T02:01:14.597Z,11.50
2022-10-29T02:03:56.086Z,11.60
2022-10-29T02:06:57.197Z,11.60
2022-10-29T02:09:40.100Z,11.60
2022-10-29T02:12:29.251Z,11.60
2022-10-29T02:15:06.463Z,11.60
2022-10-29T02:21:32.027Z,11.50
2022-10-29T02:23:59.197Z,11.50
2022-10-29T02:26:32.858Z,11.60
2022-10-29T02:29:00.545Z,11.60
2022-10-29T02:31:27.716Z,11.60
2022-10-29T02:38:21.583Z,11.50
2022-10-29T02:40:48.677Z,11.50
2022-10-29T02:45:46.808Z,11.50
2022-10-29T02:48:13.908Z,11.50
2022-10-29T02:50:40.945Z,11.50
2022-10-29T02:53:08.046Z,11.40
2022-10-29T02:56:37.308Z,11.40
2022-10-29T02:59:06.501Z,11.50
2022-10-29T03:04:44.301Z,11.40
2022-10-29T03:07:50.679Z,11.40
2022-10-29T03:10:17.874Z,11.50
2022-10-29T03:12:44.895Z,11.50
2022-10-29T03:15:15.857Z,11.60
2022-10-29T03:17:42.988Z,11.60
2022-10-29T03:20:10.373Z,11.60
2022-10-29T03:22:40.775Z,11.60
2022-10-29T03:25:08.237Z,11.60
2022-10-29T03:27:49.393Z,11.60
2022-10-29T03:30:17.584Z,11.60
2022-10-29T03:32:47.435Z,11.60
2022-10-29T03:36:08.444Z,11.60
2022-10-29T03:38:35.565Z,11.50
2022-10-29T03:44:24.264Z,11.50
2022-10-29T03:46:51.427Z,11.50
2022-10-29T03:53:20.764Z,11.40
2022-10-29T03:55:51.061Z,11.50
2022-10-29T03:58:18.207Z,11.40
2022-10-29T04:00:45.338Z,11.50
2022-10-29T04:03:12.398Z,11.50
2022-10-29T04:05:39.515Z,11.40
2022-10-29T04:08:06.650Z,11.40
2022-10-29T04:10:33.709Z,11.40
2022-10-29T04:13:10.836Z,11.40
2022-10-29T04:15:37.892Z,11.40
2022-10-29T04:18:05.085Z,11.40
2022-10-29T04:31:54.258Z,11.30
2022-10-29T04:34:21.343Z,11.30
2022-10-29T04:36:48.397Z,11.30
2022-10-29T04:39:18.319Z,11.20
2022-10-29T04:41:49.758Z,11.20
2022-10-29T04:44:21.952Z,11.20
2022-10-29T04:46:49.134Z,11.20
2022-10-29T04:49:16.363Z,11.20
2022-10-29T04:51:45.754Z,11.20
2022-10-29T04:54:12.839Z,11.10
2022-10-29T04:56:39.894Z,11.10
2022-10-29T04:59:32.375Z,11.10
2022-10-29T05:01:59.402Z,11.10
2022-10-29T05:04:28.246Z,11.10
2022-10-29T05:07:05.781Z,11.00
2022-10-29T05:09:32.834Z,11.00
2022-10-29T05:11:59.924Z,11.00
2022-10-29T05:18:26.213Z,10.90
2022-10-29T05:20:54.960Z,10.90
2022-10-29T05:23:22.399Z,10.90
2022-10-29T05:25:51.381Z,10.90
2022-10-29T05:28:21.584Z,10.90
2022-10-29T05:30:51.102Z,10.90
2022-10-29T05:33:39.620Z,10.90
2022-10-29T05:36:06.794Z,10.90
2022-10-29T05:38:33.882Z,10.90
2022-10-29T05:42:00.184Z,10.90
2022-10-29T05:44:27.292Z,10.80
2022-10-29T05:46:57.594Z,10.90
2022-10-29T05:50:29.949Z,10.90
2022-10-29T05:53:03.083Z,10.90
2022-10-29T05:56:21.074Z,10.90
2022-10-29T05:58:52.094Z,10.90
2022-10-29T06:01:25.225Z,10.90
2022-10-29T06:06:20.430Z,11.00
2022-10-29T06:09:12.488Z,11.10
2022-10-29T06:11:39.548Z,11.20
2022-10-29T06:14:06.671Z,11.10
2022-10-29T06:16:33.669Z,11.20
2022-10-29T06:19:00.691Z,11.20
2022-10-29T06:21:27.740Z,11.20
2022-10-29T06:23:55.891Z,11.30
2022-10-29T06:26:23.026Z,11.30
2022-10-29T06:28:50.017Z,11.40
2022-10-29T06:31:17.052Z,11.40
2022-10-29T06:33:44.151Z,11.50
2022-10-29T06:36:11.169Z,11.60
2022-10-29T06:38:38.206Z,11.50
2022-10-29T06:41:05.515Z,11.50
2022-10-29T06:43:32.511Z,11.60
2022-10-29T06:45:59.604Z,11.60
2022-10-29T06:48:26.596Z,11.60
2022-10-29T06:50:53.733Z,11.60
2022-10-29T06:53:23.816Z,11.60
2022-10-29T06:55:50.859Z,11.60
2022-10-29T06:58:20.381Z,11.70
2022-10-29T07:00:48.693Z,11.70
2022-10-29T07:03:17.850Z,11.80
2022-10-29T07:05:45.290Z,11.80
2022-10-29T07:08:12.651Z,11.90
2022-10-29T07:10:41.025Z,12.00
2022-10-29T07:13:10.030Z,12.10
2022-10-29T07:15:37.036Z,12.20
2022-10-29T07:18:06.704Z,12.30
2022-10-29T07:20:37.039Z,12.50
2022-10-29T07:23:04.294Z,12.60
2022-10-29T07:25:32.337Z,12.70
2022-10-29T07:28:08.431Z,12.80
2022-10-29T07:30:35.518Z,13.00
2022-10-29T07:33:03.900Z,13.20
2022-10-29T07:35:31.008Z,13.20
2022-10-29T07:38:09.162Z,13.40
2022-10-29T07:40:48.308Z,13.40
2022-10-29T07:43:19.017Z,13.30
2022-10-29T07:45:50.185Z,13.30
2022-10-29T07:48:21.401Z,13.40
2022-10-29T07:50:49.255Z,13.50
2022-10-29T07:55:59.638Z,13.60
2022-10-29T07:58:26.916Z,13.80
2022-10-29T08:00:54.539Z,13.90
2022-10-29T08:03:21.845Z,14.00
2022-10-29T08:05:56.413Z,14.20
2022-10-29T08:08:25.744Z,14.30
2022-10-29T08:10:52.763Z,14.50
2022-10-29T08:13:20.457Z,14.50
2022-10-29T08:15:49.670Z,14.60
2022-10-29T08:18:18.099Z,14.80
2022-10-29T08:20:45.869Z,14.90
2022-10-29T08:23:15.906Z,14.90
2022-10-29T08:25:43.725Z,15.00
2022-10-29T08:28:13.720Z,15.00
2022-10-29T08:30:50.332Z,15.10
2022-10-29T08:33:18.447Z,15.10
2022-10-29T08:35:45.444Z,15.10
2022-10-29T08:38:13.643Z,15.20
2022-10-29T08:41:05.229Z,15.20
2022-10-29T08:43:59.052Z,15.20
2022-10-29T08:46:47.118Z,15.30
2022-10-29T08:49:22.139Z,15.40
2022-10-29T08:52:01.190Z,15.60
2022-10-29T08:54:33.692Z,15.60
2022-10-29T08:57:08.067Z,15.70
2022-10-29T09:00:06.127Z,15.80
2022-10-29T09:02:33.447Z,15.80
2022-10-29T09:05:45.494Z,15.80
2022-10-29T09:08:30.723Z,15.80
2022-10-29T09:11:05.103Z,15.80
2022-10-29T09:13:41.083Z,15.80
2022-10-29T09:21:11.798Z,15.90
2022-10-29T09:23:47.905Z,15.90
2022-10-29T09:27:12.651Z,16.10
2022-10-29T09:29:46.051Z,16.10
2022-10-29T09:33:14.039Z,16.20
2022-10-29T09:35:52.663Z,16.40
2022-10-29T09:38:40.475Z,16.50
2022-10-29T09:41:10.548Z,16.50
2022-10-29T09:44:23.975Z,16.60
2022-10-29T09:47:29.089Z,16.70
2022-10-29T09:50:21.136Z,16.70
2022-10-29T09:52:50.023Z,16.80
2022-10-29T09:55:27.636Z,16.90
2022-10-29T09:57:57.378Z,16.90
2022-10-29T10:00:27.866Z,16.90
2022-10-29T10:03:03.340Z,16.90
2022-10-29T10:05:35.566Z,17.00
2022-10-29T10:08:07.457Z,17.10
2022-10-29T10:10:38.192Z,17.20
2022-10-29T10:13:06.622Z,17.20
2022-10-29T10:15:37.747Z,17.30
2022-10-29T10:18:47.720Z,17.30
2022-10-29T10:21:28.437Z,17.20
2022-10-29T10:23:57.770Z,17.20
2022-10-29T10:26:45.354Z,17.20
2022-10-29T10:29:21.799Z,17.20
2022-10-29T10:32:10.206Z,17.20
2022-10-29T10:34:39.100Z,17.30
2022-10-29T10:37:16.147Z,17.30
2022-10-29T10:40:19.988Z,17.40
2022-10-29T10:42:47.623Z,17.50
2022-10-29T10:45:18.197Z,17.50
2022-10-29T10:47:51.315Z,17.40
2022-10-29T10:50:26.493Z,17.50
2022-10-29T10:52:55.575Z,17.70
2022-10-29T10:55:24.271Z,17.80
2022-10-29T10:58:16.576Z,17.80
2022-10-29T11:00:58.075Z,17.80
2022-10-29T11:04:05.670Z,17.80
2022-10-29T11:06:39.029Z,17.90
2022-10-29T11:09:29.733Z,17.90
2022-10-29T11:12:13.772Z,17.90
2022-10-29T11:14:53.724Z,18.00
2022-10-29T11:17:37.137Z,18.10
2022-10-29T11:20:15.554Z,18.10
2022-10-29T11:22:58.309Z,18.20
2022-10-29T11:25:43.496Z,18.20
2022-10-29T11:28:19.842Z,18.20
2022-10-29T11:30:58.304Z,18.30
2022-10-29T11:33:43.779Z,18.30
2022-10-29T11:36:18.839Z,18.30
2022-10-29T11:39:07.666Z,18.30
2022-10-29T11:41:48.449Z,18.30
2022-10-29T11:44:18.109Z,18.40
2022-10-29T11:47:45.119Z,18.40
2022-10-29T11:50:43.447Z,18.50
2022-10-29T11:53:34.763Z,18.50
2022-10-29T11:56:14.199Z,18.50
2022-10-29T11:59:19.684Z,18.40
2022-10-29T12:01:55.553Z,18.30
2022-10-29T12:04:38.372Z,18.40
2022-10-29T12:07:35.083Z,18.30
2022-10-29T12:10:09.380Z,18.40
2022-10-29T12:13:08.629Z,18.40
2022-10-29T12:15:51.305Z,18.40
2022-10-29T12:18:30.330Z,18.50
2022-10-29T12:21:26.681Z,18.50
2022-10-29T12:24:30.510Z,18.50
2022-10-29T12:27:18.169Z,18.50
2022-10-29T12:30:04.398Z,18.50
2022-10-29T12:32:46.557Z,18.50
2022-10-29T12:35:35.252Z,18.40
2022-10-29T12:38:17.476Z,18.40
2022-10-29T12:40:48.958Z,18.40
2022-10-29T12:43:31.910Z,18.40
2022-10-29T12:46:21.309Z,18.40
2022-10-29T12:48:58.204Z,18.40
2022-10-29T12:51:43.958Z,18.40
2022-10-29T12:54:30.322Z,18.40
2022-10-29T12:57:13.029Z,18.40
2022-10-29T13:00:32.945Z,18.30
2022-10-29T13:03:00.537Z,18.40
2022-10-29T13:05:42.026Z,18.40
2022-10-29T13:08:19.246Z,18.50
2022-10-29T13:11:36.919Z,18.50
2022-10-29T13:14:04.080Z,18.50
2022-10-29T13:16:32.545Z,18.50
2022-10-29T13:19:29.478Z,18.40
2022-10-29T13:22:06.762Z,18.40
2022-10-29T13:24:33.878Z,18.40
2022-10-29T13:27:12.843Z,18.40
2022-10-29T13:29:51.024Z,18.40
2022-10-29T13:32:34.134Z,18.40
2022-10-29T13:36:06.267Z,18.40
2022-10-29T13:39:04.635Z,18.50
2022-10-29T13:41:40.432Z,18.40
2022-10-29T13:44:07.428Z,18.40
2022-10-29T13:46:56.451Z,18.30
2022-10-29T13:49:30.552Z,18.20
2022-10-29T13:52:28.920Z,18.20
2022-10-29T13:55:08.057Z,18.30
2022-10-29T13:57:54.480Z,18.20
2022-10-29T14:00:22.194Z,18.10
2022-10-29T14:03:22.672Z,18.10
2022-10-29T14:05:56.331Z,18.00
2022-10-29T14:08:49.114Z,18.00
2022-10-29T14:11:33.536Z,18.00
2022-10-29T14:14:04.460Z,18.00
2022-10-29T14:16:33.385Z,17.90
2022-10-29T14:23:20.379Z,17.70
2022-10-29T14:25:55.368Z,17.70
2022-10-29T14:28:30.362Z,17.60
2022-10-29T14:31:07.493Z,17.50
2022-10-29T14:34:25.908Z,17.40
2022-10-29T14:37:01.403Z,17.40
2022-10-29T14:39:59.713Z,17.40
2022-10-29T14:42:43.357Z,17.30
2022-10-29T14:54:19.714Z,17.10
2022-10-29T14:56:50.342Z,16.90
2022-10-29T14:59:39.138Z,16.90
2022-10-29T15:02:36.467Z,16.80
2022-10-29T15:05:28.047Z,16.80
2022-10-29T15:08:11.285Z,16.70
2022-10-29T15:11:18.746Z,16.60
2022-10-29T15:13:46.440Z,16.50
2022-10-29T15:20:40.697Z,16.30
2022-10-29T15:23:35.932Z,16.20
2022-10-29T15:26:24.100Z,16.10
2022-10-29T15:28:54.877Z,16.10
2022-10-29T15:32:06.917Z,16.00
2022-10-29T15:34:36.607Z,15.90
2022-10-29T15:37:45.218Z,15.80
2022-10-29T15:40:14.871Z,15.80
2022-10-29T15:42:51.038Z,15.70
2022-10-29T15:45:25.730Z,15.60
2022-10-29T15:52:21.803Z,15.50
2022-10-29T15:54:49.155Z,15.40
2022-10-29T15:57:17.844Z,15.30
2022-10-29T15:59:44.881Z,15.30
2022-10-29T16:02:14.352Z,15.30
2022-10-29T16:05:35.839Z,15.20
2022-10-29T16:08:03.863Z,15.20
2022-10-29T16:10:31.541Z,15.20
2022-10-29T16:13:55.122Z,15.10
2022-10-29T16:16:24.513Z,15.10
2022-10-29T16:18:58.744Z,15.10
2022-10-29T16:21:26.615Z,15.10
2022-10-29T16:23:54.142Z,15.00
2022-10-29T16:26:48.963Z,15.00
2022-10-29T16:29:16.211Z,15.00
2022-10-29T16:31:43.601Z,14.90
2022-10-29T16:34:30.905Z,15.00
2022-10-29T16:36:57.984Z,14.90
2022-10-29T16:39:25.019Z,14.90
2022-10-29T16:41:54.469Z,14.90
2022-10-29T16:44:21.516Z,14.90
2022-10-29T16:46:48.617Z,14.90
2022-10-29T16:49:15.665Z,14.90
2022-10-29T16:51:42.877Z,14.90
2022-10-29T16:54:09.890Z,14.90
2022-10-29T16:56:36.936Z,14.90
2022-10-29T16:59:04.046Z,14.90
2022-10-29T17:02:40.675Z,14.90
2022-10-29T17:05:07.979Z,14.90
2022-10-29T17:07:35.068Z,14.90
2022-10-29T17:10:52.670Z,14.90
2022-10-29T17:13:20.042Z,14.90
2022-10-29T17:15:47.054Z,14.90
2022-10-29T17:26:43.283Z,14.90
2022-10-29T17:33:47.276Z,14.90
2022-10-29T17:36:15.506Z,14.90
2022-10-29T17:38:42.506Z,14.90
2022-10-29T18:17:29.150Z,14.90
2022-10-29T18:19:56.248Z,14.90
2022-10-29T18:22:23.296Z,14.90
2022-10-29T18:42:19.181Z,14.90
2022-10-29T18:46:16.624Z,15.00
2022-10-29T18:48:47.068Z,14.90
2022-10-29T18:56:19.623Z,14.90
2022-10-29T18:58:47.218Z,14.90
2022-10-29T19:01:17.027Z,14.80
2022-10-29T19:03:48.366Z,14.80
2022-10-29T19:09:38.351Z,14.90
2022-10-29T19:10:36.172Z,14.90
2022-10-29T19:12:05.841Z,14.90
2022-10-29T19:14:32.881Z,14.80
2022-10-29T19:17:51.320Z,14.80
2022-10-29T19:20:19.641Z,14.80
2022-10-29T19:22:46.752Z,14.90
2022-10-29T19:42:58.132Z,14.60
2022-10-29T19:45:25.165Z,14.60
2022-10-29T20:36:13.896Z,13.90
2022-10-29T20:38:41.085Z,13.80
2022-10-29T20:41:08.309Z,13.80
2022-10-29T20:47:43.426Z,13.90
2022-10-29T20:50:10.603Z,13.80
2022-10-29T20:52:37.654Z,13.70
2022-10-29T20:55:05.270Z,13.70
2022-10-29T20:57:32.323Z,13.70
2022-10-29T21:27:10.073Z,13.60
2022-10-29T21:29:37.204Z,13.60
2022-10-29T21:32:04.435Z,13.60
2022-10-29T21:47:51.204Z,13.50
2022-10-29T21:50:18.396Z,13.50
2022-10-29T22:07:03.559Z,13.40
2022-10-29T22:09:30.741Z,13.30
2022-10-29T22:11:57.784Z,13.30
2022-10-29T22:33:09.600Z,13.10
2022-10-29T22:35:36.676Z,13.10
2022-10-29T22:38:03.699Z,13.10
2022-10-29T22:45:24.794Z,13.00
2022-10-29T22:47:51.920Z,13.00
2022-10-29T22:50:19.032Z,13.00
2022-10-29T22:53:21.736Z,13.00
2022-10-29T22:55:53.012Z,12.90
2022-10-29T22:58:20.143Z,12.90
2022-10-29T23:01:13.117Z,12.90
2022-10-29T23:22:10.345Z,12.80
2022-10-29T23:24:37.461Z,12.70
2022-10-29T23:27:04.590Z,12.70
2022-10-29T23:46:57.178Z,12.50
2022-10-29T23:49:24.231Z,12.50
2022-10-29T23:56:13.005Z,12.50
2022-10-29T23:58:40.097Z,12.50
